Terminal Aerodrome Forecast
Issued by NWS

Home | Current Version | Previous Version | Graphics & Text | Print | Product List | Glossary On
Versions: 1 2 3 4 5 6 7 8 9 10 11 12 13 14 15 16 17 18 19 20
195
FTUS43 KPAH 141420 AAB
TAFCGI
TAF AMD
KCGI 141420Z 1414/1512 13010KT 1SM -SN BR OVC015
     FM141500 13010KT 6SM -FZRAPL SCT020 OVC040
      TEMPO 1415/1418 3SM FZRAPL OVC025
     FM141800 15007KT 6SM -FZRA BR OVC015
     FM150000 VRB03KT 5SM BR OVC010=

USA.gov is the U.S. government's official web portal to all federal, state and local government web resources and services.